McCanna, North Dakota
Current Conditions -  °F | °C
As of 5:58 AM on Sunday 25 Jan 2015 (Local Time) from KRDR Reporting Station
Clear Clear  
Wind Chill:   Ceiling: Unl
Heat Index: 11°   Visibility: 10mi
Dew Point:   Wind: 7mph
Humidity: 84%   Direction: 350°N
Pressure: 30.01"   Gusts: NA
Location:  47.8728°N, 97.7386°W
Report Text: KRDR 251158Z AUTO 35006KT 10SM CLR M12/M14 A3001 RMK AO2 SLP185 T11171139 11071 21118 52017
Loading
Personal Weather Stations






























Interactive Weather Map New forecast layout! Learn more

10-Day Weather Forecast

Advertisements
Track Severe Weather on mobile